Picture Butte, Canada
Current Conditions -  °F | °C
As of 10:00 AM on Friday 24 Oct 2014 (Local Time) from CYQL Reporting Station
Broken Clouds Broken Clouds  
Wind Chill: 50°   Ceiling: 27000
Heat Index: 50°   Visibility: 40mi
Dew Point: 25°   Wind: 24mph
Humidity: 37%   Direction: 240°WSW
Pressure: 29.93"   Gusts: 30mph
Location:  49.87°N, 112.78°W
Report Text: CYQL 241600Z 24021G26KT 40SM FEW060 BKN270 10/M04 A2993 RMK SC1CI5 SC TR SLP145 DENSITY ALT 3100FT
Loading
Personal Weather Stations






























Interactive Weather Map New forecast layout! Learn more

10-Day Weather Forecast

Advertisements
Track Severe Weather on mobile